sensor_id;sensor_type;location;lat;lon;timestamp;P1;durP1;ratioP1;P2;durP2;ratioP2
71475;SDS011;59286;59.274;17.974;2022-10-15T00:01:36;22.27;;;13.93;;
71475;SDS011;59286;59.274;17.974;2022-10-15T00:04:02;29.65;;;17.10;;
71475;SDS011;59286;59.274;17.974;2022-10-15T00:06:27;34.15;;;18.00;;
71475;SDS011;59286;59.274;17.974;2022-10-15T00:08:53;27.77;;;16.15;;
71475;SDS011;59286;59.274;17.974;2022-10-15T00:11:19;32.88;;;16.60;;
71475;SDS011;59286;59.274;17.974;2022-10-15T00:13:47;26.73;;;15.30;;
71475;SDS011;59286;59.274;17.974;2022-10-15T00:16:17;25.00;;;15.52;;
71475;SDS011;59286;59.274;17.974;2022-10-15T00:18:44;24.48;;;14.27;;
71475;SDS011;59286;59.274;17.974;2022-10-15T00:21:12;25.60;;;15.43;;
71475;SDS011;59286;59.274;17.974;2022-10-15T00:23:39;26.38;;;15.90;;
71475;SDS011;59286;59.274;17.974;2022-10-15T00:26:07;21.33;;;13.15;;
71475;SDS011;59286;59.274;17.974;2022-10-15T00:28:37;20.35;;;13.23;;
71475;SDS011;59286;59.274;17.974;2022-10-15T00:31:08;21.38;;;13.00;;
71475;SDS011;59286;59.274;17.974;2022-10-15T00:33:36;20.27;;;13.23;;
71475;SDS011;59286;59.274;17.974;2022-10-15T00:36:16;20.85;;;13.15;;
71475;SDS011;59286;59.274;17.974;2022-10-15T00:38:43;26.13;;;13.80;;
71475;SDS011;59286;59.274;17.974;2022-10-15T00:41:12;21.67;;;13.57;;
71475;SDS011;59286;59.274;17.974;2022-10-15T00:43:43;17.45;;;12.43;;
71475;SDS011;59286;59.274;17.974;2022-10-15T00:46:17;16.98;;;12.15;;
71475;SDS011;59286;59.274;17.974;2022-10-15T00:49:02;22.70;;;12.80;;
71475;SDS011;59286;59.274;17.974;2022-10-15T00:51:34;18.15;;;11.85;;
71475;SDS011;59286;59.274;17.974;2022-10-15T00:54:03;20.48;;;13.15;;
71475;SDS011;59286;59.274;17.974;2022-10-15T00:56:30;19.75;;;11.25;;
71475;SDS011;59286;59.274;17.974;2022-10-15T00:58:57;15.07;;;9.65;;
71475;SDS011;59286;59.274;17.974;2022-10-15T01:01:23;20.10;;;12.40;;
71475;SDS011;59286;59.274;17.974;2022-10-15T01:03:49;13.68;;;7.90;;
71475;SDS011;59286;59.274;17.974;2022-10-15T01:06:17;16.10;;;10.75;;
71475;SDS011;59286;59.274;17.974;2022-10-15T01:08:42;17.55;;;11.10;;
71475;SDS011;59286;59.274;17.974;2022-10-15T01:14:00;17.90;;;10.85;;
71475;SDS011;59286;59.274;17.974;2022-10-15T01:22:09;17.35;;;12.10;;
71475;SDS011;59286;59.274;17.974;2022-10-15T01:27:19;15.70;;;11.32;;
71475;SDS011;59286;59.274;17.974;2022-10-15T01:30:03;18.90;;;12.20;;
71475;SDS011;59286;59.274;17.974;2022-10-15T01:35:42;21.23;;;11.38;;
71475;SDS011;59286;59.274;17.974;2022-10-15T01:41:00;16.70;;;10.00;;
71475;SDS011;59286;59.274;17.974;2022-10-15T01:43:45;20.02;;;12.32;;
71475;SDS011;59286;59.274;17.974;2022-10-15T01:46:23;23.50;;;13.55;;
71475;SDS011;59286;59.274;17.974;2022-10-15T01:48:56;18.90;;;10.88;;
71475;SDS011;59286;59.274;17.974;2022-10-15T01:51:23;23.98;;;14.43;;
71475;SDS011;59286;59.274;17.974;2022-10-15T01:53:50;24.75;;;15.02;;
71475;SDS011;59286;59.274;17.974;2022-10-15T01:56:18;16.38;;;9.60;;
71475;SDS011;59286;59.274;17.974;2022-10-15T01:58:46;19.30;;;11.40;;
71475;SDS011;59286;59.274;17.974;2022-10-15T02:01:15;26.20;;;15.27;;
71475;SDS011;59286;59.274;17.974;2022-10-15T02:03:50;14.70;;;8.25;;
71475;SDS011;59286;59.274;17.974;2022-10-15T02:06:28;13.73;;;8.73;;
71475;SDS011;59286;59.274;17.974;2022-10-15T02:14:43;18.83;;;11.63;;
71475;SDS011;59286;59.274;17.974;2022-10-15T02:17:11;18.60;;;11.38;;
71475;SDS011;59286;59.274;17.974;2022-10-15T02:19:48;19.65;;;12.13;;
71475;SDS011;59286;59.274;17.974;2022-10-15T02:22:18;26.63;;;13.98;;
71475;SDS011;59286;59.274;17.974;2022-10-15T02:24:56;15.60;;;9.38;;
71475;SDS011;59286;59.274;17.974;2022-10-15T02:27:27;13.90;;;9.48;;
71475;SDS011;59286;59.274;17.974;2022-10-15T02:29:55;23.42;;;13.95;;
71475;SDS011;59286;59.274;17.974;2022-10-15T02:32:23;18.17;;;10.80;;
71475;SDS011;59286;59.274;17.974;2022-10-15T02:34:49;15.48;;;10.38;;
71475;SDS011;59286;59.274;17.974;2022-10-15T02:37:17;16.73;;;10.68;;
71475;SDS011;59286;59.274;17.974;2022-10-15T02:39:44;16.63;;;11.18;;
71475;SDS011;59286;59.274;17.974;2022-10-15T02:42:10;16.75;;;9.48;;
71475;SDS011;59286;59.274;17.974;2022-10-15T02:44:35;13.02;;;9.23;;
71475;SDS011;59286;59.274;17.974;2022-10-15T02:47:01;17.83;;;8.80;;
71475;SDS011;59286;59.274;17.974;2022-10-15T02:49:26;15.23;;;9.48;;
71475;SDS011;59286;59.274;17.974;2022-10-15T02:51:52;16.23;;;10.80;;
71475;SDS011;59286;59.274;17.974;2022-10-15T02:54:17;22.77;;;14.13;;
71475;SDS011;59286;59.274;17.974;2022-10-15T02:56:43;23.08;;;14.27;;
71475;SDS011;59286;59.274;17.974;2022-10-15T02:59:08;18.95;;;10.90;;
71475;SDS011;59286;59.274;17.974;2022-10-15T03:01:33;10.60;;;7.93;;
71475;SDS011;59286;59.274;17.974;2022-10-15T03:03:59;12.73;;;8.25;;
71475;SDS011;59286;59.274;17.974;2022-10-15T03:06:25;12.30;;;7.75;;
71475;SDS011;59286;59.274;17.974;2022-10-15T03:08:50;14.88;;;8.80;;
71475;SDS011;59286;59.274;17.974;2022-10-15T03:11:16;15.10;;;8.50;;
71475;SDS011;59286;59.274;17.974;2022-10-15T03:13:41;12.30;;;9.25;;
71475;SDS011;59286;59.274;17.974;2022-10-15T03:16:07;14.48;;;10.07;;
71475;SDS011;59286;59.274;17.974;2022-10-15T03:18:34;14.75;;;8.68;;
71475;SDS011;59286;59.274;17.974;2022-10-15T03:21:00;10.43;;;7.30;;
71475;SDS011;59286;59.274;17.974;2022-10-15T03:23:26;15.13;;;10.13;;
71475;SDS011;59286;59.274;17.974;2022-10-15T03:25:52;19.45;;;10.25;;
71475;SDS011;59286;59.274;17.974;2022-10-15T03:28:18;11.52;;;7.63;;
71475;SDS011;59286;59.274;17.974;2022-10-15T03:30:44;11.73;;;7.18;;
71475;SDS011;59286;59.274;17.974;2022-10-15T03:33:09;19.13;;;8.77;;
71475;SDS011;59286;59.274;17.974;2022-10-15T03:35:35;14.07;;;8.70;;
71475;SDS011;59286;59.274;17.974;2022-10-15T03:38:00;13.52;;;8.73;;
71475;SDS011;59286;59.274;17.974;2022-10-15T03:40:26;13.75;;;7.40;;
71475;SDS011;59286;59.274;17.974;2022-10-15T03:42:51;13.73;;;7.57;;
71475;SDS011;59286;59.274;17.974;2022-10-15T03:45:17;11.02;;;7.10;;
71475;SDS011;59286;59.274;17.974;2022-10-15T03:47:44;15.95;;;9.05;;
71475;SDS011;59286;59.274;17.974;2022-10-15T03:50:10;10.30;;;6.55;;
71475;SDS011;59286;59.274;17.974;2022-10-15T03:52:38;12.50;;;8.32;;
71475;SDS011;59286;59.274;17.974;2022-10-15T03:55:11;12.70;;;7.85;;
71475;SDS011;59286;59.274;17.974;2022-10-15T03:57:37;12.23;;;7.63;;
71475;SDS011;59286;59.274;17.974;2022-10-15T04:00:03;9.82;;;7.45;;
71475;SDS011;59286;59.274;17.974;2022-10-15T04:02:30;12.68;;;7.68;;
71475;SDS011;59286;59.274;17.974;2022-10-15T04:04:56;10.68;;;7.10;;
71475;SDS011;59286;59.274;17.974;2022-10-15T04:07:22;10.75;;;6.85;;
71475;SDS011;59286;59.274;17.974;2022-10-15T04:09:48;11.20;;;7.05;;
71475;SDS011;59286;59.274;17.974;2022-10-15T04:12:16;16.80;;;7.97;;
71475;SDS011;59286;59.274;17.974;2022-10-15T04:14:41;12.95;;;7.57;;
71475;SDS011;59286;59.274;17.974;2022-10-15T04:17:07;12.60;;;7.95;;
71475;SDS011;59286;59.274;17.974;2022-10-15T04:19:33;9.77;;;7.22;;
71475;SDS011;59286;59.274;17.974;2022-10-15T04:21:58;12.63;;;6.70;;
71475;SDS011;59286;59.274;17.974;2022-10-15T04:24:24;16.33;;;8.02;;
71475;SDS011;59286;59.274;17.974;2022-10-15T04:26:50;8.98;;;5.40;;
71475;SDS011;59286;59.274;17.974;2022-10-15T04:29:15;13.52;;;9.13;;
71475;SDS011;59286;59.274;17.974;2022-10-15T04:31:41;11.38;;;6.13;;
71475;SDS011;59286;59.274;17.974;2022-10-15T04:34:07;16.13;;;8.50;;
71475;SDS011;59286;59.274;17.974;2022-10-15T04:36:32;13.82;;;9.15;;
71475;SDS011;59286;59.274;17.974;2022-10-15T04:38:58;19.40;;;11.07;;
71475;SDS011;59286;59.274;17.974;2022-10-15T04:41:24;22.77;;;12.40;;
71475;SDS011;59286;59.274;17.974;2022-10-15T04:43:49;17.63;;;9.70;;
71475;SDS011;59286;59.274;17.974;2022-10-15T04:46:15;18.23;;;11.23;;
71475;SDS011;59286;59.274;17.974;2022-10-15T04:48:40;21.92;;;12.27;;
71475;SDS011;59286;59.274;17.974;2022-10-15T04:51:06;34.03;;;17.13;;
71475;SDS011;59286;59.274;17.974;2022-10-15T04:53:33;24.80;;;12.70;;
71475;SDS011;59286;59.274;17.974;2022-10-15T04:56:02;22.85;;;12.95;;
71475;SDS011;59286;59.274;17.974;2022-10-15T04:58:30;32.60;;;15.68;;
71475;SDS011;59286;59.274;17.974;2022-10-15T05:01:03;34.22;;;16.45;;
71475;SDS011;59286;59.274;17.974;2022-10-15T05:03:32;29.90;;;16.90;;
71475;SDS011;59286;59.274;17.974;2022-10-15T05:06:02;42.83;;;19.33;;
71475;SDS011;59286;59.274;17.974;2022-10-15T05:08:30;17.45;;;11.23;;
71475;SDS011;59286;59.274;17.974;2022-10-15T05:11:00;40.28;;;20.25;;
71475;SDS011;59286;59.274;17.974;2022-10-15T05:13:30;35.50;;;19.48;;
71475;SDS011;59286;59.274;17.974;2022-10-15T05:15:56;47.03;;;25.08;;
71475;SDS011;59286;59.274;17.974;2022-10-15T05:18:21;47.60;;;25.92;;
71475;SDS011;59286;59.274;17.974;2022-10-15T05:20:47;45.22;;;25.75;;
71475;SDS011;59286;59.274;17.974;2022-10-15T05:23:12;49.58;;;23.83;;
71475;SDS011;59286;59.274;17.974;2022-10-15T05:25:38;40.78;;;22.70;;
71475;SDS011;59286;59.274;17.974;2022-10-15T05:28:03;47.67;;;25.35;;
71475;SDS011;59286;59.274;17.974;2022-10-15T05:30:29;42.72;;;23.20;;
71475;SDS011;59286;59.274;17.974;2022-10-15T05:32:55;42.72;;;23.50;;
71475;SDS011;59286;59.274;17.974;2022-10-15T05:35:21;53.30;;;28.23;;
71475;SDS011;59286;59.274;17.974;2022-10-15T05:37:47;45.10;;;24.42;;
71475;SDS011;59286;59.274;17.974;2022-10-15T05:40:13;44.60;;;24.92;;
71475;SDS011;59286;59.274;17.974;2022-10-15T05:42:38;33.45;;;21.60;;
71475;SDS011;59286;59.274;17.974;2022-10-15T05:45:04;44.00;;;25.13;;
71475;SDS011;59286;59.274;17.974;2022-10-15T05:47:30;50.15;;;26.85;;
71475;SDS011;59286;59.274;17.974;2022-10-15T05:49:55;62.90;;;30.10;;
71475;SDS011;59286;59.274;17.974;2022-10-15T05:52:21;38.75;;;23.67;;
71475;SDS011;59286;59.274;17.974;2022-10-15T05:54:46;76.10;;;34.08;;
71475;SDS011;59286;59.274;17.974;2022-10-15T05:57:12;82.82;;;37.03;;
71475;SDS011;59286;59.274;17.974;2022-10-15T05:59:37;63.08;;;31.67;;
71475;SDS011;59286;59.274;17.974;2022-10-15T06:02:02;70.68;;;33.95;;
71475;SDS011;59286;59.274;17.974;2022-10-15T06:04:28;64.25;;;33.15;;
71475;SDS011;59286;59.274;17.974;2022-10-15T06:06:53;68.80;;;34.67;;
71475;SDS011;59286;59.274;17.974;2022-10-15T06:09:19;55.03;;;31.25;;
71475;SDS011;59286;59.274;17.974;2022-10-15T06:11:44;64.85;;;33.25;;
71475;SDS011;59286;59.274;17.974;2022-10-15T06:14:09;72.88;;;35.70;;
71475;SDS011;59286;59.274;17.974;2022-10-15T06:16:35;45.63;;;29.23;;
71475;SDS011;59286;59.274;17.974;2022-10-15T06:19:01;58.00;;;31.65;;
71475;SDS011;59286;59.274;17.974;2022-10-15T06:21:27;53.85;;;31.70;;
71475;SDS011;59286;59.274;17.974;2022-10-15T06:23:52;62.10;;;33.63;;
71475;SDS011;59286;59.274;17.974;2022-10-15T06:26:18;47.83;;;30.17;;
71475;SDS011;59286;59.274;17.974;2022-10-15T06:28:43;53.33;;;31.10;;
71475;SDS011;59286;59.274;17.974;2022-10-15T06:31:09;50.42;;;30.67;;
71475;SDS011;59286;59.274;17.974;2022-10-15T06:33:34;50.13;;;30.65;;
71475;SDS011;59286;59.274;17.974;2022-10-15T06:36:04;44.22;;;27.50;;
71475;SDS011;59286;59.274;17.974;2022-10-15T06:38:31;54.38;;;30.02;;
71475;SDS011;59286;59.274;17.974;2022-10-15T06:40:56;41.63;;;25.77;;
71475;SDS011;59286;59.274;17.974;2022-10-15T06:43:22;44.38;;;27.27;;
71475;SDS011;59286;59.274;17.974;2022-10-15T06:45:48;43.17;;;26.60;;
71475;SDS011;59286;59.274;17.974;2022-10-15T06:48:14;43.10;;;26.95;;
71475;SDS011;59286;59.274;17.974;2022-10-15T06:50:39;46.53;;;28.60;;
71475;SDS011;59286;59.274;17.974;2022-10-15T06:53:05;42.83;;;26.10;;
71475;SDS011;59286;59.274;17.974;2022-10-15T06:55:31;45.85;;;27.08;;
71475;SDS011;59286;59.274;17.974;2022-10-15T06:57:58;45.88;;;26.92;;
71475;SDS011;59286;59.274;17.974;2022-10-15T07:00:25;42.22;;;25.77;;
71475;SDS011;59286;59.274;17.974;2022-10-15T07:02:50;42.65;;;25.50;;
71475;SDS011;59286;59.274;17.974;2022-10-15T07:05:16;40.92;;;24.92;;
71475;SDS011;59286;59.274;17.974;2022-10-15T07:07:49;38.67;;;24.60;;
71475;SDS011;59286;59.274;17.974;2022-10-15T07:10:18;38.03;;;23.08;;
71475;SDS011;59286;59.274;17.974;2022-10-15T07:12:44;33.17;;;22.83;;
71475;SDS011;59286;59.274;17.974;2022-10-15T07:15:09;36.90;;;22.83;;
71475;SDS011;59286;59.274;17.974;2022-10-15T07:17:35;45.08;;;24.85;;
71475;SDS011;59286;59.274;17.974;2022-10-15T07:20:02;33.90;;;23.45;;
71475;SDS011;59286;59.274;17.974;2022-10-15T07:22:28;31.35;;;22.75;;
71475;SDS011;59286;59.274;17.974;2022-10-15T07:24:53;37.15;;;25.15;;
71475;SDS011;59286;59.274;17.974;2022-10-15T07:27:18;34.20;;;23.55;;
71475;SDS011;59286;59.274;17.974;2022-10-15T07:29:44;39.28;;;24.20;;
71475;SDS011;59286;59.274;17.974;2022-10-15T07:32:12;38.65;;;25.50;;
71475;SDS011;59286;59.274;17.974;2022-10-15T07:34:38;38.75;;;25.00;;
71475;SDS011;59286;59.274;17.974;2022-10-15T07:37:03;37.83;;;25.30;;
71475;SDS011;59286;59.274;17.974;2022-10-15T07:39:28;39.25;;;25.88;;
71475;SDS011;59286;59.274;17.974;2022-10-15T07:41:54;38.15;;;23.23;;
71475;SDS011;59286;59.274;17.974;2022-10-15T07:44:19;32.53;;;23.30;;
71475;SDS011;59286;59.274;17.974;2022-10-15T07:46:45;34.55;;;23.42;;
71475;SDS011;59286;59.274;17.974;2022-10-15T07:49:11;35.67;;;21.15;;
71475;SDS011;59286;59.274;17.974;2022-10-15T07:51:37;30.92;;;21.48;;
71475;SDS011;59286;59.274;17.974;2022-10-15T07:54:03;37.40;;;22.60;;
71475;SDS011;59286;59.274;17.974;2022-10-15T07:56:28;38.78;;;22.95;;
71475;SDS011;59286;59.274;17.974;2022-10-15T07:58:54;31.48;;;21.95;;
71475;SDS011;59286;59.274;17.974;2022-10-15T08:01:19;33.13;;;21.90;;
71475;SDS011;59286;59.274;17.974;2022-10-15T08:03:45;25.13;;;19.67;;
71475;SDS011;59286;59.274;17.974;2022-10-15T08:06:11;35.58;;;20.52;;
71475;SDS011;59286;59.274;17.974;2022-10-15T08:08:37;29.73;;;19.35;;
71475;SDS011;59286;59.274;17.974;2022-10-15T08:11:06;29.92;;;20.55;;
71475;SDS011;59286;59.274;17.974;2022-10-15T08:13:38;33.38;;;20.08;;
71475;SDS011;59286;59.274;17.974;2022-10-15T08:16:07;28.83;;;19.65;;
71475;SDS011;59286;59.274;17.974;2022-10-15T08:18:35;30.52;;;19.42;;
71475;SDS011;59286;59.274;17.974;2022-10-15T08:21:01;29.52;;;19.92;;
71475;SDS011;59286;59.274;17.974;2022-10-15T08:23:28;31.30;;;20.38;;
71475;SDS011;59286;59.274;17.974;2022-10-15T08:25:53;29.55;;;20.13;;
71475;SDS011;59286;59.274;17.974;2022-10-15T08:28:21;30.63;;;23.15;;
71475;SDS011;59286;59.274;17.974;2022-10-15T08:30:46;31.52;;;23.30;;
71475;SDS011;59286;59.274;17.974;2022-10-15T08:33:11;30.27;;;21.55;;
71475;SDS011;59286;59.274;17.974;2022-10-15T08:35:39;26.25;;;18.55;;
71475;SDS011;59286;59.274;17.974;2022-10-15T08:38:05;30.45;;;17.70;;
71475;SDS011;59286;59.274;17.974;2022-10-15T08:40:31;30.67;;;18.60;;
71475;SDS011;59286;59.274;17.974;2022-10-15T08:42:56;26.58;;;17.77;;
71475;SDS011;59286;59.274;17.974;2022-10-15T08:45:29;24.10;;;17.40;;
71475;SDS011;59286;59.274;17.974;2022-10-15T08:53:18;29.33;;;18.75;;
71475;SDS011;59286;59.274;17.974;2022-10-15T08:55:47;27.55;;;19.17;;
71475;SDS011;59286;59.274;17.974;2022-10-15T09:06:35;24.25;;;16.83;;
71475;SDS011;59286;59.274;17.974;2022-10-15T09:14:41;23.67;;;16.75;;
71475;SDS011;59286;59.274;17.974;2022-10-15T09:17:21;28.08;;;17.73;;
71475;SDS011;59286;59.274;17.974;2022-10-15T09:19:52;22.10;;;16.65;;
71475;SDS011;59286;59.274;17.974;2022-10-15T09:22:26;25.45;;;17.42;;
71475;SDS011;59286;59.274;17.974;2022-10-15T09:24:53;27.60;;;15.77;;
71475;SDS011;59286;59.274;17.974;2022-10-15T09:27:26;23.60;;;15.15;;
71475;SDS011;59286;59.274;17.974;2022-10-15T09:35:52;24.33;;;15.70;;
71475;SDS011;59286;59.274;17.974;2022-10-15T09:43:23;18.98;;;14.77;;
71475;SDS011;59286;59.274;17.974;2022-10-15T09:45:55;25.65;;;16.63;;
71475;SDS011;59286;59.274;17.974;2022-10-15T09:48:21;19.92;;;14.00;;
71475;SDS011;59286;59.274;17.974;2022-10-15T09:51:01;21.73;;;12.88;;
71475;SDS011;59286;59.274;17.974;2022-10-15T09:56:25;19.25;;;14.18;;
71475;SDS011;59286;59.274;17.974;2022-10-15T09:59:00;20.90;;;13.70;;
71475;SDS011;59286;59.274;17.974;2022-10-15T10:01:27;18.77;;;13.85;;
71475;SDS011;59286;59.274;17.974;2022-10-15T10:06:47;22.23;;;14.98;;
71475;SDS011;59286;59.274;17.974;2022-10-15T10:09:17;21.02;;;16.60;;
71475;SDS011;59286;59.274;17.974;2022-10-15T10:11:52;29.30;;;15.27;;
71475;SDS011;59286;59.274;17.974;2022-10-15T10:14:33;21.63;;;15.20;;
71475;SDS011;59286;59.274;17.974;2022-10-15T10:17:02;24.48;;;15.80;;
71475;SDS011;59286;59.274;17.974;2022-10-15T10:19:37;27.95;;;16.00;;
71475;SDS011;59286;59.274;17.974;2022-10-15T10:22:16;25.33;;;18.40;;
71475;SDS011;59286;59.274;17.974;2022-10-15T10:24:45;26.88;;;18.70;;
71475;SDS011;59286;59.274;17.974;2022-10-15T10:27:30;25.20;;;19.50;;
71475;SDS011;59286;59.274;17.974;2022-10-15T10:29:56;27.70;;;19.40;;
71475;SDS011;59286;59.274;17.974;2022-10-15T10:32:28;25.38;;;17.98;;
71475;SDS011;59286;59.274;17.974;2022-10-15T10:34:57;24.17;;;16.88;;
71475;SDS011;59286;59.274;17.974;2022-10-15T10:37:24;30.33;;;19.92;;
71475;SDS011;59286;59.274;17.974;2022-10-15T10:39:51;31.10;;;20.80;;
71475;SDS011;59286;59.274;17.974;2022-10-15T10:44:44;27.52;;;19.60;;
71475;SDS011;59286;59.274;17.974;2022-10-15T10:47:17;25.98;;;19.05;;
71475;SDS011;59286;59.274;17.974;2022-10-15T10:49:49;30.25;;;19.92;;
71475;SDS011;59286;59.274;17.974;2022-10-15T10:57:38;29.88;;;17.70;;
71475;SDS011;59286;59.274;17.974;2022-10-15T11:03:11;27.65;;;20.08;;
71475;SDS011;59286;59.274;17.974;2022-10-15T11:05:46;30.38;;;21.10;;
71475;SDS011;59286;59.274;17.974;2022-10-15T11:16:23;32.95;;;19.92;;
71475;SDS011;59286;59.274;17.974;2022-10-15T11:19:07;28.77;;;20.27;;
71475;SDS011;59286;59.274;17.974;2022-10-15T11:24:33;30.17;;;19.58;;
71475;SDS011;59286;59.274;17.974;2022-10-15T11:33:01;31.15;;;23.15;;
71475;SDS011;59286;59.274;17.974;2022-10-15T11:35:09;33.35;;;22.75;;
71475;SDS011;59286;59.274;17.974;2022-10-15T11:40:38;27.83;;;21.00;;
71475;SDS011;59286;59.274;17.974;2022-10-15T11:43:26;30.08;;;22.20;;
71475;SDS011;59286;59.274;17.974;2022-10-15T11:49:25;25.92;;;20.38;;
71475;SDS011;59286;59.274;17.974;2022-10-15T11:54:59;27.38;;;20.50;;
71475;SDS011;59286;59.274;17.974;2022-10-15T11:57:35;27.75;;;19.98;;
71475;SDS011;59286;59.274;17.974;2022-10-15T12:03:05;28.60;;;21.13;;
71475;SDS011;59286;59.274;17.974;2022-10-15T12:05:39;31.10;;;21.83;;
71475;SDS011;59286;59.274;17.974;2022-10-15T12:08:09;31.13;;;20.90;;
71475;SDS011;59286;59.274;17.974;2022-10-15T12:16:43;33.67;;;24.25;;
71475;SDS011;59286;59.274;17.974;2022-10-15T12:21:37;34.17;;;22.55;;
71475;SDS011;59286;59.274;17.974;2022-10-15T12:29:42;42.65;;;32.35;;
71475;SDS011;59286;59.274;17.974;2022-10-15T12:32:36;45.33;;;33.92;;
71475;SDS011;59286;59.274;17.974;2022-10-15T12:35:04;44.65;;;33.15;;
71475;SDS011;59286;59.274;17.974;2022-10-15T12:37:42;41.85;;;31.85;;
71475;SDS011;59286;59.274;17.974;2022-10-15T12:40:24;41.78;;;30.85;;
71475;SDS011;59286;59.274;17.974;2022-10-15T12:42:59;37.28;;;26.02;;
71475;SDS011;59286;59.274;17.974;2022-10-15T12:45:34;32.47;;;26.08;;
71475;SDS011;59286;59.274;17.974;2022-10-15T12:50:31;38.55;;;28.25;;
71475;SDS011;59286;59.274;17.974;2022-10-15T12:58:35;33.88;;;25.83;;
71475;SDS011;59286;59.274;17.974;2022-10-15T13:01:03;31.05;;;24.73;;
71475;SDS011;59286;59.274;17.974;2022-10-15T13:06:12;32.33;;;24.92;;
71475;SDS011;59286;59.274;17.974;2022-10-15T13:11:38;32.08;;;24.40;;
71475;SDS011;59286;59.274;17.974;2022-10-15T13:16:36;39.00;;;28.50;;
71475;SDS011;59286;59.274;17.974;2022-10-15T13:19:02;37.47;;;26.52;;
71475;SDS011;59286;59.274;17.974;2022-10-15T13:21:45;34.42;;;25.55;;
71475;SDS011;59286;59.274;17.974;2022-10-15T13:24:22;29.13;;;23.30;;
71475;SDS011;59286;59.274;17.974;2022-10-15T13:26:49;32.80;;;25.70;;
71475;SDS011;59286;59.274;17.974;2022-10-15T13:29:27;46.35;;;36.30;;
71475;SDS011;59286;59.274;17.974;2022-10-15T13:31:54;111.55;;;77.60;;
71475;SDS011;59286;59.274;17.974;2022-10-15T13:34:25;135.60;;;88.55;;
71475;SDS011;59286;59.274;17.974;2022-10-15T13:37:00;92.40;;;65.13;;
71475;SDS011;59286;59.274;17.974;2022-10-15T13:41:54;41.65;;;28.63;;
71475;SDS011;59286;59.274;17.974;2022-10-15T13:44:30;32.30;;;26.35;;
71475;SDS011;59286;59.274;17.974;2022-10-15T13:46:55;30.50;;;23.60;;
71475;SDS011;59286;59.274;17.974;2022-10-15T13:49:21;34.38;;;26.75;;
71475;SDS011;59286;59.274;17.974;2022-10-15T13:51:47;31.70;;;24.70;;
71475;SDS011;59286;59.274;17.974;2022-10-15T13:54:16;34.80;;;25.95;;
71475;SDS011;59286;59.274;17.974;2022-10-15T13:57:03;31.90;;;25.10;;
71475;SDS011;59286;59.274;17.974;2022-10-15T13:59:31;32.97;;;23.63;;
71475;SDS011;59286;59.274;17.974;2022-10-15T14:01:57;31.48;;;25.70;;
71475;SDS011;59286;59.274;17.974;2022-10-15T14:04:26;41.85;;;29.65;;
71475;SDS011;59286;59.274;17.974;2022-10-15T14:06:58;41.00;;;26.55;;
71475;SDS011;59286;59.274;17.974;2022-10-15T14:09:29;41.42;;;29.55;;
71475;SDS011;59286;59.274;17.974;2022-10-15T14:12:00;38.47;;;29.42;;
71475;SDS011;59286;59.274;17.974;2022-10-15T14:14:38;31.52;;;23.77;;
71475;SDS011;59286;59.274;17.974;2022-10-15T14:17:20;46.63;;;32.00;;
71475;SDS011;59286;59.274;17.974;2022-10-15T14:19:48;42.55;;;29.23;;
71475;SDS011;59286;59.274;17.974;2022-10-15T14:22:17;45.00;;;31.02;;
71475;SDS011;59286;59.274;17.974;2022-10-15T14:24:46;46.08;;;32.05;;
71475;SDS011;59286;59.274;17.974;2022-10-15T14:27:16;46.08;;;32.92;;
71475;SDS011;59286;59.274;17.974;2022-10-15T14:29:44;38.72;;;28.67;;
71475;SDS011;59286;59.274;17.974;2022-10-15T14:34:57;54.58;;;34.47;;
71475;SDS011;59286;59.274;17.974;2022-10-15T14:37:37;52.97;;;34.05;;
71475;SDS011;59286;59.274;17.974;2022-10-15T14:40:10;50.97;;;33.75;;
71475;SDS011;59286;59.274;17.974;2022-10-15T14:47:52;62.38;;;41.58;;
71475;SDS011;59286;59.274;17.974;2022-10-15T14:50:28;70.78;;;45.50;;
71475;SDS011;59286;59.274;17.974;2022-10-15T14:52:55;172.55;;;113.25;;
71475;SDS011;59286;59.274;17.974;2022-10-15T14:57:48;73.80;;;43.28;;
71475;SDS011;59286;59.274;17.974;2022-10-15T15:02:53;57.00;;;37.42;;
71475;SDS011;59286;59.274;17.974;2022-10-15T15:05:23;55.03;;;36.80;;
71475;SDS011;59286;59.274;17.974;2022-10-15T15:07:50;50.67;;;35.13;;
71475;SDS011;59286;59.274;17.974;2022-10-15T15:10:16;52.28;;;35.65;;
71475;SDS011;59286;59.274;17.974;2022-10-15T15:12:44;58.55;;;37.95;;
71475;SDS011;59286;59.274;17.974;2022-10-15T15:15:15;51.95;;;35.88;;
71475;SDS011;59286;59.274;17.974;2022-10-15T15:17:42;58.58;;;38.10;;
71475;SDS011;59286;59.274;17.974;2022-10-15T15:20:08;54.58;;;34.10;;
71475;SDS011;59286;59.274;17.974;2022-10-15T15:22:34;55.13;;;35.78;;
71475;SDS011;59286;59.274;17.974;2022-10-15T15:25:03;55.83;;;36.08;;
71475;SDS011;59286;59.274;17.974;2022-10-15T15:27:37;61.47;;;38.75;;
71475;SDS011;59286;59.274;17.974;2022-10-15T15:30:14;72.43;;;41.47;;
71475;SDS011;59286;59.274;17.974;2022-10-15T15:32:45;59.00;;;35.42;;
71475;SDS011;59286;59.274;17.974;2022-10-15T15:35:27;55.67;;;37.22;;
71475;SDS011;59286;59.274;17.974;2022-10-15T15:37:58;55.00;;;35.13;;
71475;SDS011;59286;59.274;17.974;2022-10-15T15:40:23;59.22;;;37.15;;
71475;SDS011;59286;59.274;17.974;2022-10-15T15:42:49;58.50;;;35.03;;
71475;SDS011;59286;59.274;17.974;2022-10-15T15:45:21;49.22;;;33.30;;
71475;SDS011;59286;59.274;17.974;2022-10-15T15:47:48;57.70;;;35.33;;
71475;SDS011;59286;59.274;17.974;2022-10-15T15:50:15;47.88;;;33.60;;
71475;SDS011;59286;59.274;17.974;2022-10-15T15:52:41;61.83;;;38.50;;
71475;SDS011;59286;59.274;17.974;2022-10-15T15:55:07;68.43;;;45.03;;
71475;SDS011;59286;59.274;17.974;2022-10-15T15:57:33;85.60;;;50.78;;
71475;SDS011;59286;59.274;17.974;2022-10-15T15:59:59;69.20;;;44.65;;
71475;SDS011;59286;59.274;17.974;2022-10-15T16:02:27;107.55;;;60.22;;
71475;SDS011;59286;59.274;17.974;2022-10-15T16:04:52;85.07;;;49.17;;
71475;SDS011;59286;59.274;17.974;2022-10-15T16:07:18;83.38;;;50.90;;
71475;SDS011;59286;59.274;17.974;2022-10-15T16:09:43;100.25;;;57.85;;
71475;SDS011;59286;59.274;17.974;2022-10-15T16:12:11;75.88;;;45.83;;
71475;SDS011;59286;59.274;17.974;2022-10-15T16:14:39;67.32;;;43.20;;
71475;SDS011;59286;59.274;17.974;2022-10-15T16:17:05;68.30;;;43.42;;
71475;SDS011;59286;59.274;17.974;2022-10-15T16:19:30;71.28;;;41.78;;
71475;SDS011;59286;59.274;17.974;2022-10-15T16:21:55;79.18;;;45.95;;
71475;SDS011;59286;59.274;17.974;2022-10-15T16:24:21;76.82;;;43.25;;
71475;SDS011;59286;59.274;17.974;2022-10-15T16:26:46;86.38;;;49.78;;
71475;SDS011;59286;59.274;17.974;2022-10-15T16:29:12;81.82;;;48.25;;
71475;SDS011;59286;59.274;17.974;2022-10-15T16:31:39;74.57;;;45.92;;
71475;SDS011;59286;59.274;17.974;2022-10-15T16:34:04;77.82;;;47.67;;
71475;SDS011;59286;59.274;17.974;2022-10-15T16:36:30;81.82;;;49.45;;
71475;SDS011;59286;59.274;17.974;2022-10-15T16:38:56;82.93;;;50.58;;
71475;SDS011;59286;59.274;17.974;2022-10-15T16:41:22;75.28;;;44.08;;
71475;SDS011;59286;59.274;17.974;2022-10-15T16:43:47;68.85;;;41.03;;